createdAt,value
2018-09-20T00:00:56.719Z,90.09
2018-09-20T00:04:00.924Z,90.21
2018-09-20T00:07:05.125Z,90.46
2018-09-20T00:10:09.365Z,91.52
2018-09-20T00:13:13.562Z,91.21
2018-09-20T00:16:17.748Z,92.04
2018-09-20T00:19:21.941Z,91.98
2018-09-20T00:22:26.137Z,91.56
2018-09-20T00:25:30.331Z,92.53
2018-09-20T00:28:34.524Z,91.95
2018-09-20T00:31:38.725Z,92.92
2018-09-20T00:34:42.930Z,92.07
2018-09-20T00:37:47.133Z,92.99
2018-09-20T00:40:51.373Z,92.87
2018-09-20T00:43:55.561Z,92.52
2018-09-20T00:47:00.606Z,93.46
2018-09-20T00:50:04.812Z,93.39
2018-09-20T00:53:09.032Z,93.17
2018-09-20T00:56:16.760Z,93.24
2018-09-20T00:59:21.029Z,93.06
2018-09-20T01:02:25.220Z,93.31
2018-09-20T01:05:29.445Z,94.25
2018-09-20T01:08:33.653Z,93.61
2018-09-20T01:11:38.004Z,93.87
2018-09-20T01:14:42.210Z,94.19
2018-09-20T01:17:46.449Z,93.99
2018-09-20T01:20:50.637Z,93.45
2018-09-20T01:23:54.849Z,93.37
2018-09-20T01:26:59.033Z,93.94
2018-09-20T01:30:03.232Z,93.52
2018-09-20T01:33:07.433Z,93.25
2018-09-20T01:36:11.642Z,93.48
2018-09-20T01:39:16.821Z,93.24
2018-09-20T01:42:21.606Z,94.17
2018-09-20T01:45:25.811Z,93.34
2018-09-20T01:48:30.010Z,93.49
2018-09-20T01:51:34.262Z,93.83
2018-09-20T01:54:38.448Z,94.21
2018-09-20T01:57:43.474Z,94.04
2018-09-20T02:00:47.682Z,93.83
2018-09-20T02:03:51.885Z,94.85
2018-09-20T02:06:56.074Z,94.03
2018-09-20T02:10:00.289Z,94.87
2018-09-20T02:13:05.593Z,94.37
2018-09-20T02:16:09.797Z,94.61
2018-09-20T02:19:14.011Z,95.47
2018-09-20T02:22:18.229Z,95.31
2018-09-20T02:25:22.409Z,95.11
2018-09-20T02:28:26.725Z,94.88
2018-09-20T02:31:30.941Z,94.86
2018-09-20T02:34:35.142Z,95.37
2018-09-20T02:37:39.345Z,95.14
2018-09-20T02:40:43.533Z,95.12
2018-09-20T02:43:47.725Z,94.69
2018-09-20T02:46:51.949Z,94.93
2018-09-20T02:49:56.143Z,95.20
2018-09-20T02:53:00.413Z,95.14
2018-09-20T02:56:04.596Z,95.53
2018-09-20T02:59:08.913Z,95.45
2018-09-20T03:02:13.105Z,95.16
2018-09-20T03:05:17.320Z,95.67
2018-09-20T03:08:21.492Z,95.07
2018-09-20T03:11:25.805Z,95.74
2018-09-20T03:14:30.006Z,95.36
2018-09-20T03:17:34.395Z,95.60
2018-09-20T03:20:38.609Z,95.86
2018-09-20T03:23:42.845Z,96.43
2018-09-20T03:26:47.036Z,95.53
2018-09-20T03:29:51.264Z,96.37
2018-09-20T03:32:55.458Z,95.79
2018-09-20T03:35:59.709Z,96.36
2018-09-20T03:39:04.145Z,96.76
2018-09-20T03:42:08.358Z,96.58
2018-09-20T03:45:13.651Z,96.50
2018-09-20T03:48:17.837Z,97.04
2018-09-20T03:51:22.048Z,96.76
2018-09-20T03:54:26.264Z,97.34
2018-09-20T03:57:30.473Z,97.54
2018-09-20T04:00:34.672Z,96.98
2018-09-20T04:03:38.909Z,96.73
2018-09-20T04:06:43.204Z,97.81
2018-09-20T04:09:47.507Z,97.06
2018-09-20T04:12:51.646Z,97.87
2018-09-20T04:15:55.857Z,98.27
2018-09-20T04:19:00.593Z,98.35
2018-09-20T04:22:04.809Z,97.94
2018-09-20T04:25:08.996Z,98.34
2018-09-20T04:28:13.231Z,98.19
2018-09-20T04:31:17.438Z,97.99
2018-09-20T04:34:21.670Z,98.71
2018-09-20T04:37:25.878Z,98.14
2018-09-20T04:40:30.077Z,98.22
2018-09-20T04:43:34.288Z,98.68
2018-09-20T04:46:38.477Z,98.99
2018-09-20T04:49:42.683Z,98.51
2018-09-20T04:52:46.928Z,99.15
2018-09-20T04:55:51.151Z,99.09
2018-09-20T04:58:55.334Z,99.17
2018-09-20T05:01:59.540Z,99.08
2018-09-20T05:05:03.746Z,99.33
2018-09-20T05:08:07.937Z,99.46
2018-09-20T05:11:12.129Z,99.60
2018-09-20T05:14:16.320Z,99.30
2018-09-20T05:17:20.515Z,99.38
2018-09-20T05:20:24.700Z,99.53
2018-09-20T05:23:28.934Z,100.00
2018-09-20T05:26:33.153Z,99.55
2018-09-20T05:29:37.360Z,100.00
2018-09-20T05:32:41.589Z,100.00
2018-09-20T05:35:45.798Z,100.00
2018-09-20T05:38:50.014Z,100.00
2018-09-20T05:41:54.228Z,100.00
2018-09-20T05:44:58.419Z,100.00
2018-09-20T05:48:02.648Z,100.00
2018-09-20T05:51:08.199Z,100.00
2018-09-20T05:54:12.430Z,100.00
2018-09-20T05:57:16.625Z,100.00
2018-09-20T06:00:20.837Z,100.00
2018-09-20T06:03:25.165Z,99.74
2018-09-20T06:06:29.368Z,100.00
2018-09-20T06:09:33.577Z,99.39
2018-09-20T06:12:37.800Z,99.28
2018-09-20T06:15:41.981Z,99.33
2018-09-20T06:18:46.231Z,99.60
2018-09-20T06:21:50.458Z,99.91
2018-09-20T06:24:54.633Z,99.93
2018-09-20T06:27:58.882Z,98.97
2018-09-20T06:31:03.094Z,99.54
2018-09-20T06:34:07.533Z,98.66
2018-09-20T06:37:11.761Z,99.45
2018-09-20T06:40:16.037Z,98.48
2018-09-20T06:43:20.258Z,98.92
2018-09-20T06:46:24.474Z,98.29
2018-09-20T06:49:28.902Z,98.24
2018-09-20T06:52:33.149Z,98.80
2018-09-20T06:55:37.340Z,98.26
2018-09-20T06:58:41.534Z,98.08
2018-09-20T07:01:45.738Z,98.10
2018-09-20T07:04:49.973Z,97.81
2018-09-20T07:07:54.169Z,98.13
2018-09-20T07:10:58.381Z,98.26
2018-09-20T07:14:02.564Z,97.97
2018-09-20T07:17:06.802Z,98.85
2018-09-20T07:20:11.034Z,98.41
2018-09-20T07:23:15.261Z,97.56
2018-09-20T07:26:19.464Z,97.83
2018-09-20T07:29:23.970Z,98.84
2018-09-20T07:32:28.212Z,98.54
2018-09-20T07:35:32.462Z,98.71
2018-09-20T07:38:36.680Z,98.90
2018-09-20T07:41:40.933Z,98.59
2018-09-20T07:44:45.157Z,99.21
2018-09-20T07:47:49.572Z,100.00
2018-09-20T07:50:53.902Z,100.00
2018-09-20T07:53:58.148Z,100.00
2018-09-20T07:57:02.406Z,100.00
2018-09-20T08:00:06.733Z,100.00
2018-09-20T08:03:10.936Z,100.00
2018-09-20T08:06:15.189Z,100.00
2018-09-20T08:09:19.602Z,100.00
2018-09-20T08:12:23.825Z,100.00
2018-09-20T08:15:28.213Z,100.00
2018-09-20T08:18:32.418Z,100.00
2018-09-20T08:21:36.689Z,100.00
2018-09-20T08:24:40.905Z,100.00
2018-09-20T08:27:45.201Z,100.00
2018-09-20T08:30:49.453Z,100.00
2018-09-20T08:33:54.077Z,100.00
2018-09-20T08:36:58.383Z,100.00
2018-09-20T08:40:02.626Z,100.00
2018-09-20T08:43:07.086Z,100.00
2018-09-20T08:46:12.455Z,100.00
2018-09-20T08:49:29.206Z,100.00
2018-09-20T08:52:34.502Z,100.00
2018-09-20T08:55:41.430Z,100.00
2018-09-20T08:58:47.229Z,100.00
2018-09-20T09:01:53.483Z,100.00
2018-09-20T09:04:57.929Z,100.00
2018-09-20T09:08:02.267Z,100.00
2018-09-20T09:11:06.562Z,100.00
2018-09-20T09:14:11.169Z,100.00
2018-09-20T09:17:15.394Z,100.00
2018-09-20T09:20:19.637Z,100.00
2018-09-20T09:23:23.858Z,100.00
2018-09-20T09:26:28.085Z,100.00
2018-09-20T09:29:32.310Z,100.00
2018-09-20T09:32:36.553Z,100.00
2018-09-20T09:35:40.761Z,100.00
2018-09-20T09:39:19.227Z,100.00
2018-09-20T09:42:23.466Z,100.00
2018-09-20T09:45:27.714Z,100.00
2018-09-20T09:48:31.921Z,100.00
2018-09-20T09:51:36.184Z,100.00
2018-09-20T09:54:40.505Z,100.00
2018-09-20T09:57:48.802Z,100.00
2018-09-20T10:00:53.073Z,100.00
2018-09-20T10:03:57.308Z,100.00
2018-09-20T10:07:01.654Z,100.00
2018-09-20T10:10:05.997Z,100.00
2018-09-20T10:13:10.270Z,100.00
2018-09-20T10:16:14.534Z,100.00
2018-09-20T10:19:18.765Z,100.00
2018-09-20T10:22:23.011Z,100.00
2018-09-20T10:25:27.242Z,100.00
2018-09-20T10:28:31.475Z,100.00
2018-09-20T10:31:35.698Z,100.00
2018-09-20T10:34:39.964Z,100.00
2018-09-20T10:37:44.212Z,100.00
2018-09-20T10:40:48.444Z,100.00
2018-09-20T10:43:52.678Z,100.00
2018-09-20T10:46:56.909Z,100.00
2018-09-20T10:50:01.135Z,100.00
2018-09-20T10:53:05.372Z,100.00
2018-09-20T10:56:09.649Z,100.00
2018-09-20T10:59:14.582Z,100.00
2018-09-20T11:02:18.857Z,100.00
2018-09-20T11:05:23.097Z,100.00
2018-09-20T11:08:27.343Z,100.00
2018-09-20T11:11:31.600Z,100.00
2018-09-20T11:14:36.162Z,100.00
2018-09-20T11:17:40.409Z,100.00
2018-09-20T11:20:44.646Z,97.73
2018-09-20T11:23:48.853Z,98.08
2018-09-20T11:26:53.870Z,95.94
2018-09-20T11:29:58.108Z,96.18
2018-09-20T11:33:02.476Z,95.99
2018-09-20T11:36:06.910Z,94.46
2018-09-20T11:39:13.033Z,95.30
2018-09-20T11:42:17.391Z,95.60
2018-09-20T11:45:21.759Z,95.69
2018-09-20T11:48:26.111Z,94.52
2018-09-20T11:51:30.521Z,92.43
2018-09-20T11:54:34.813Z,92.44
2018-09-20T11:57:39.090Z,92.66
2018-09-20T12:00:43.309Z,92.10
2018-09-20T12:03:47.556Z,91.94
2018-09-20T12:06:51.801Z,89.99
2018-09-20T12:09:56.056Z,89.10
2018-09-20T12:13:00.339Z,87.59
2018-09-20T12:16:04.616Z,88.44
2018-09-20T12:19:08.884Z,88.13
2018-09-20T12:22:13.188Z,86.87
2018-09-20T12:25:17.419Z,88.68
2018-09-20T12:28:21.691Z,86.65
2018-09-20T12:31:25.973Z,86.78
2018-09-20T12:34:30.158Z,84.68
2018-09-20T12:37:37.554Z,85.69
2018-09-20T12:40:41.820Z,85.92
2018-09-20T12:43:46.129Z,85.84
2018-09-20T12:46:50.389Z,84.67
2018-09-20T12:49:54.706Z,85.74
2018-09-20T12:52:58.989Z,85.81
2018-09-20T12:56:03.444Z,85.31
2018-09-20T12:59:07.732Z,85.17
2018-09-20T13:02:11.998Z,85.33
2018-09-20T13:05:16.262Z,85.54
2018-09-20T13:08:20.589Z,87.16
2018-09-20T13:11:24.804Z,86.42
2018-09-20T13:14:29.086Z,86.03
2018-09-20T13:17:33.337Z,84.71
2018-09-20T13:20:37.713Z,84.36
2018-09-20T13:23:41.987Z,84.31
2018-09-20T13:26:46.253Z,85.02
2018-09-20T13:29:50.539Z,83.20
2018-09-20T13:32:54.780Z,82.96
2018-09-20T13:35:59.106Z,82.81
2018-09-20T13:39:03.454Z,83.54
2018-09-20T13:42:07.733Z,83.87
2018-09-20T13:45:12.038Z,83.59
2018-09-20T13:48:16.324Z,84.12
2018-09-20T13:51:20.592Z,83.37
2018-09-20T13:54:24.880Z,83.29
2018-09-20T13:57:30.157Z,82.34
2018-09-20T14:00:34.462Z,83.10
2018-09-20T14:03:39.960Z,83.27
2018-09-20T14:06:44.202Z,83.89
2018-09-20T14:09:48.458Z,85.11
2018-09-20T14:12:52.726Z,85.34
2018-09-20T14:15:56.985Z,84.92
2018-09-20T14:19:01.260Z,84.90
2018-09-20T14:22:05.533Z,85.12
2018-09-20T14:25:09.808Z,85.11
2018-09-20T14:28:14.058Z,84.58
2018-09-20T14:31:18.372Z,84.73
2018-09-20T14:34:22.644Z,85.92
2018-09-20T14:37:26.916Z,86.00
2018-09-20T14:40:31.197Z,85.46
2018-09-20T14:43:35.536Z,85.80
2018-09-20T14:46:39.812Z,85.26
2018-09-20T14:49:44.100Z,85.52
2018-09-20T14:52:48.439Z,85.78
2018-09-20T14:55:52.678Z,87.16
2018-09-20T14:58:57.713Z,87.03
2018-09-20T15:02:02.006Z,88.79
2018-09-20T15:05:06.496Z,88.57
2018-09-20T15:08:10.833Z,88.28
2018-09-20T15:11:15.196Z,90.52
2018-09-20T15:14:19.460Z,90.54
2018-09-20T15:17:24.027Z,90.58
2018-09-20T15:20:28.290Z,89.53
2018-09-20T15:23:32.604Z,90.26
2018-09-20T15:26:36.820Z,90.09
2018-09-20T15:29:41.230Z,90.67
2018-09-20T15:32:45.501Z,89.79
2018-09-20T15:35:49.767Z,90.28
2018-09-20T15:38:54.060Z,90.93
2018-09-20T15:41:58.357Z,91.17
2018-09-20T15:45:02.657Z,90.95
2018-09-20T15:48:07.063Z,90.50
2018-09-20T15:51:11.325Z,90.42
2018-09-20T15:54:15.598Z,89.19
2018-09-20T15:57:19.877Z,89.14
2018-09-20T16:00:24.155Z,88.37
2018-09-20T16:03:28.451Z,89.44
2018-09-20T16:06:32.712Z,88.76
2018-09-20T16:09:36.993Z,87.61
2018-09-20T16:12:41.316Z,87.52
2018-09-20T16:15:45.596Z,88.14
2018-09-20T16:18:49.853Z,88.18
2018-09-20T16:21:54.154Z,88.22
2018-09-20T16:24:58.413Z,87.67
2018-09-20T16:28:19.829Z,88.42
2018-09-20T16:32:05.621Z,87.31
2018-09-20T16:36:22.046Z,87.79
2018-09-20T16:39:29.717Z,88.60
2018-09-20T16:42:36.852Z,88.85
2018-09-20T16:45:41.141Z,89.44
2018-09-20T16:48:45.399Z,89.34
2018-09-20T16:51:49.679Z,90.24
2018-09-20T16:54:53.971Z,90.62
2018-09-20T16:57:58.240Z,90.34
2018-09-20T17:01:02.504Z,90.88
2018-09-20T17:04:06.827Z,91.06
2018-09-20T17:07:11.145Z,90.72
2018-09-20T17:10:15.410Z,91.04
2018-09-20T17:13:20.286Z,92.04
2018-09-20T17:16:24.501Z,91.86
2018-09-20T17:19:28.744Z,92.70
2018-09-20T17:22:33.473Z,92.71
2018-09-20T17:25:38.593Z,93.05
2018-09-20T17:28:42.969Z,93.01
2018-09-20T17:31:47.315Z,93.07
2018-09-20T17:34:51.738Z,93.53
2018-09-20T17:37:56.798Z,94.14
2018-09-20T17:41:04.231Z,94.35
2018-09-20T17:44:09.336Z,94.38
2018-09-20T17:47:13.643Z,94.58
2018-09-20T17:50:17.921Z,94.08
2018-09-20T17:53:22.828Z,94.60
2018-09-20T17:56:28.582Z,94.51
2018-09-20T17:59:32.855Z,94.72
2018-09-20T18:02:37.137Z,94.77
2018-09-20T18:05:41.409Z,94.73
2018-09-20T18:08:45.724Z,94.73
2018-09-20T18:11:49.984Z,95.11
2018-09-20T18:14:54.309Z,95.63
2018-09-20T18:17:58.704Z,95.25
2018-09-20T18:21:02.914Z,95.40
2018-09-20T18:24:07.180Z,95.78
2018-09-20T18:27:11.530Z,95.00
2018-09-20T18:30:15.831Z,95.42
2018-09-20T18:33:20.115Z,95.13
2018-09-20T18:36:24.374Z,94.52
2018-09-20T18:39:28.694Z,94.34
2018-09-20T18:42:33.042Z,95.46
2018-09-20T18:45:37.287Z,95.15
2018-09-20T18:48:41.553Z,95.19
2018-09-20T18:51:45.841Z,95.95
2018-09-20T18:54:50.098Z,95.48
2018-09-20T18:57:54.366Z,95.76
2018-09-20T19:00:58.615Z,96.43
2018-09-20T19:04:02.926Z,96.59
2018-09-20T19:07:07.190Z,96.64
2018-09-20T19:10:11.475Z,96.15
2018-09-20T19:13:16.340Z,96.95
2018-09-20T19:16:20.624Z,96.92
2018-09-20T19:19:25.540Z,96.57
2018-09-20T19:22:29.801Z,96.90
2018-09-20T19:25:34.082Z,96.55
2018-09-20T19:28:38.332Z,96.88
2018-09-20T19:31:42.633Z,96.85
2018-09-20T19:34:46.904Z,97.67
2018-09-20T19:37:51.157Z,97.19
2018-09-20T19:40:55.436Z,97.83
2018-09-20T19:43:59.717Z,97.33
2018-09-20T19:47:04.001Z,97.95
2018-09-20T19:50:08.451Z,97.69
2018-09-20T19:53:12.797Z,98.10
2018-09-20T19:56:17.079Z,98.61
2018-09-20T19:59:21.337Z,98.19
2018-09-20T20:02:27.202Z,98.67
2018-09-20T20:05:31.860Z,98.95
2018-09-20T20:08:36.132Z,99.13
2018-09-20T20:11:41.220Z,98.98
2018-09-20T20:14:45.502Z,99.29
2018-09-20T20:17:49.736Z,99.01
2018-09-20T20:20:54.009Z,99.32
2018-09-20T20:23:58.284Z,99.42
2018-09-20T20:27:02.541Z,100.00
2018-09-20T20:30:07.099Z,99.40
2018-09-20T20:33:11.360Z,100.00
2018-09-20T20:36:15.718Z,99.80
2018-09-20T20:39:19.956Z,99.63
2018-09-20T20:42:24.232Z,99.87
2018-09-20T20:45:28.492Z,100.00
2018-09-20T20:48:32.773Z,100.00
2018-09-20T20:51:36.999Z,100.00
2018-09-20T20:54:41.260Z,100.00
2018-09-20T20:57:45.501Z,100.00
2018-09-20T21:00:49.759Z,100.00
2018-09-20T21:03:54.008Z,100.00
2018-09-20T21:06:58.287Z,100.00
2018-09-20T21:10:02.569Z,100.00
2018-09-20T21:13:06.857Z,100.00
2018-09-20T21:16:11.124Z,100.00
2018-09-20T21:19:15.397Z,100.00
2018-09-20T21:22:19.667Z,100.00
2018-09-20T21:25:23.933Z,100.00
2018-09-20T21:28:28.171Z,100.00
2018-09-20T21:31:32.409Z,100.00
2018-09-20T21:34:36.663Z,100.00
2018-09-20T21:37:41.118Z,100.00
2018-09-20T21:40:45.396Z,100.00
2018-09-20T21:43:49.638Z,100.00
2018-09-20T21:46:53.935Z,100.00
2018-09-20T21:49:58.177Z,99.96
2018-09-20T21:53:02.471Z,99.10
2018-09-20T21:56:06.853Z,99.68
2018-09-20T21:59:11.110Z,99.61
2018-09-20T22:02:19.440Z,99.46
2018-09-20T22:05:23.701Z,99.61
2018-09-20T22:08:27.973Z,99.31
2018-09-20T22:11:32.237Z,98.85
2018-09-20T22:14:36.509Z,99.41
2018-09-20T22:17:40.763Z,98.80
2018-09-20T22:20:45.033Z,99.54
2018-09-20T22:23:49.300Z,99.35
2018-09-20T22:26:53.572Z,99.42
2018-09-20T22:29:58.208Z,99.20
2018-09-20T22:33:02.493Z,98.31
2018-09-20T22:36:06.738Z,99.00
2018-09-20T22:39:11.860Z,98.66
2018-09-20T22:42:16.141Z,98.21
2018-09-20T22:45:20.411Z,97.87
2018-09-20T22:48:24.667Z,96.92
2018-09-20T22:51:28.960Z,96.11
2018-09-20T22:54:33.228Z,95.89
2018-09-20T22:57:37.518Z,95.58
2018-09-20T23:00:41.773Z,94.52
2018-09-20T23:03:46.536Z,93.89
2018-09-20T23:06:50.971Z,93.74
2018-09-20T23:09:55.233Z,94.07
2018-09-20T23:12:59.498Z,93.58
2018-09-20T23:16:03.755Z,93.39
2018-09-20T23:19:08.023Z,93.82
2018-09-20T23:22:12.264Z,93.33
2018-09-20T23:25:16.511Z,93.57
2018-09-20T23:28:20.763Z,92.88
2018-09-20T23:31:24.996Z,93.72
2018-09-20T23:34:29.269Z,93.10
2018-09-20T23:37:33.553Z,93.60
2018-09-20T23:40:37.796Z,93.74
2018-09-20T23:43:42.069Z,93.12
2018-09-20T23:46:46.335Z,92.88
2018-09-20T23:49:50.623Z,92.89
2018-09-20T23:52:54.855Z,92.16
2018-09-20T23:55:59.130Z,92.64
2018-09-20T23:59:03.380Z,93.16
